createdAt,value
2023-03-04T00:00:33.051Z,31.40
2023-03-04T00:02:59.687Z,36.53
2023-03-04T00:05:26.538Z,38.00
2023-03-04T00:07:53.294Z,40.00
2023-03-04T00:10:19.957Z,36.57
2023-03-04T00:12:46.725Z,37.23
2023-03-04T00:15:13.283Z,38.90
2023-03-04T00:17:39.921Z,34.73
2023-03-04T00:20:07.387Z,34.47
2023-03-04T00:22:33.966Z,39.70
2023-03-04T00:25:00.576Z,35.50
2023-03-04T00:27:27.120Z,34.43
2023-03-04T00:29:53.694Z,33.20
2023-03-04T00:32:20.357Z,34.87
2023-03-04T00:34:47.046Z,34.33
2023-03-04T00:37:13.747Z,32.17
2023-03-04T00:39:40.727Z,32.27
2023-03-04T00:42:07.273Z,30.70
2023-03-04T00:44:33.841Z,28.03
2023-03-04T00:47:00.591Z,28.07
2023-03-04T00:49:27.240Z,30.97
2023-03-04T00:51:53.806Z,29.83
2023-03-04T00:54:20.537Z,29.70
2023-03-04T00:56:47.186Z,26.53
2023-03-04T00:59:13.753Z,26.33
2023-03-04T01:01:40.873Z,33.60
2023-03-04T01:04:07.509Z,30.33
2023-03-04T01:06:34.136Z,25.93
2023-03-04T01:09:00.746Z,28.40
2023-03-04T01:11:27.374Z,26.20
2023-03-04T01:13:53.952Z,29.70
2023-03-04T01:16:20.576Z,24.47
2023-03-04T01:18:47.684Z,26.50
2023-03-04T01:21:14.939Z,25.27
2023-03-04T01:23:41.524Z,23.33
2023-03-04T01:26:08.089Z,22.97
2023-03-04T01:28:35.853Z,18.23
2023-03-04T01:31:03.905Z,26.07
2023-03-04T01:33:31.412Z,22.97
2023-03-04T01:35:58.275Z,21.23
2023-03-04T01:38:25.049Z,24.30
2023-03-04T01:40:52.553Z,19.73
2023-03-04T01:43:23.179Z,22.13
2023-03-04T01:45:51.763Z,21.80
2023-03-04T01:48:24.548Z,20.83
2023-03-04T01:50:51.241Z,19.00
2023-03-04T01:53:26.190Z,17.90
2023-03-04T01:55:55.074Z,19.93
2023-03-04T01:58:21.712Z,19.93
2023-03-04T02:00:48.344Z,20.97
2023-03-04T02:03:17.713Z,17.97
2023-03-04T02:05:48.277Z,19.13
2023-03-04T02:08:16.257Z,20.13
2023-03-04T02:10:43.784Z,18.07
2023-03-04T02:13:11.704Z,20.43
2023-03-04T02:15:38.523Z,23.43
2023-03-04T02:18:21.993Z,18.83
2023-03-04T02:21:36.998Z,17.73
2023-03-04T02:24:26.801Z,17.83
2023-03-04T02:26:53.456Z,18.97
2023-03-04T02:29:20.243Z,18.23
2023-03-04T02:31:52.347Z,16.10
2023-03-04T02:34:27.474Z,17.83
2023-03-04T02:36:55.062Z,18.00
2023-03-04T02:39:21.590Z,20.70
2023-03-04T02:41:53.627Z,20.20
2023-03-04T02:44:23.615Z,21.07
2023-03-04T02:46:51.990Z,18.30
2023-03-04T02:49:19.927Z,13.73
2023-03-04T02:51:46.802Z,18.87
2023-03-04T02:54:21.323Z,16.47
2023-03-04T02:56:53.451Z,16.23
2023-03-04T02:59:21.374Z,16.90
2023-03-04T03:01:48.024Z,15.53
2023-03-04T03:04:15.243Z,20.00
2023-03-04T03:06:41.860Z,20.77
2023-03-04T03:09:08.863Z,16.37
2023-03-04T03:11:35.622Z,17.30
2023-03-04T03:14:02.265Z,13.23
2023-03-04T03:16:28.995Z,15.50
2023-03-04T03:18:55.652Z,23.37
2023-03-04T03:21:22.476Z,16.97
2023-03-04T03:23:49.270Z,15.70
2023-03-04T03:26:16.742Z,18.00
2023-03-04T03:28:43.331Z,20.03
2023-03-04T03:31:09.934Z,13.23
2023-03-04T03:33:36.561Z,15.90
2023-03-04T03:36:03.770Z,13.70
2023-03-04T03:38:30.391Z,16.73
2023-03-04T03:40:57.034Z,17.50
2023-03-04T03:43:23.603Z,14.77
2023-03-04T03:45:51.812Z,16.90
2023-03-04T03:48:18.783Z,20.37
2023-03-04T03:50:45.687Z,15.20
2023-03-04T03:53:12.259Z,19.63
2023-03-04T03:55:39.129Z,15.37
2023-03-04T03:58:06.134Z,15.07
2023-03-04T04:00:32.689Z,22.73
2023-03-04T04:03:01.163Z,20.20
2023-03-04T04:05:27.768Z,15.77
2023-03-04T04:07:54.538Z,19.00
2023-03-04T04:10:21.623Z,15.43
2023-03-04T04:12:48.458Z,15.97
2023-03-04T04:15:15.086Z,16.90
2023-03-04T04:17:41.654Z,21.50
2023-03-04T04:20:10.305Z,11.23
2023-03-04T04:22:36.854Z,16.63
2023-03-04T04:25:04.907Z,12.67
2023-03-04T04:27:31.522Z,13.63
2023-03-04T04:29:58.118Z,13.77
2023-03-04T04:32:24.751Z,12.80
2023-03-04T04:34:51.387Z,11.70
2023-03-04T04:37:17.965Z,10.70
2023-03-04T04:39:44.579Z,11.97
2023-03-04T04:42:11.850Z,14.07
2023-03-04T04:44:38.957Z,15.67
2023-03-04T04:47:07.222Z,11.73
2023-03-04T04:49:34.102Z,14.03
2023-03-04T04:52:00.917Z,13.10
2023-03-04T04:54:27.548Z,9.63
2023-03-04T04:56:54.148Z,10.30
2023-03-04T04:59:21.111Z,11.27
2023-03-04T05:01:47.799Z,11.83
2023-03-04T05:04:14.429Z,13.60
2023-03-04T05:06:41.188Z,10.67
2023-03-04T05:09:07.839Z,11.63
2023-03-04T05:11:34.564Z,11.03
2023-03-04T05:14:01.129Z,12.23
2023-03-04T05:16:27.780Z,10.30
2023-03-04T05:18:54.376Z,11.53
2023-03-04T05:21:21.143Z,10.57
2023-03-04T05:23:47.748Z,7.27
2023-03-04T05:26:17.395Z,7.03
2023-03-04T05:28:44.695Z,11.00
2023-03-04T05:31:12.071Z,8.10
2023-03-04T05:33:39.326Z,8.93
2023-03-04T05:36:07.062Z,11.10
2023-03-04T05:38:33.994Z,9.50
2023-03-04T05:41:06.730Z,10.03
2023-03-04T05:43:35.950Z,11.07
2023-03-04T05:46:04.061Z,15.50
2023-03-04T05:48:30.853Z,10.93
2023-03-04T05:51:00.058Z,9.87
2023-03-04T05:53:27.195Z,8.30
2023-03-04T05:55:53.810Z,11.60
2023-03-04T05:58:20.868Z,10.00
2023-03-04T06:00:47.796Z,11.03
2023-03-04T06:03:20.198Z,9.50
2023-03-04T06:05:46.847Z,7.73
2023-03-04T06:08:14.110Z,11.93
2023-03-04T06:10:41.669Z,9.47
2023-03-04T06:13:09.144Z,9.50
2023-03-04T06:15:35.928Z,4.93
2023-03-04T06:18:02.637Z,7.67
2023-03-04T06:20:29.304Z,9.67
2023-03-04T06:22:55.875Z,11.83
2023-03-04T06:25:22.838Z,9.27
2023-03-04T06:27:50.806Z,8.03
2023-03-04T06:30:18.427Z,9.03
2023-03-04T06:32:46.075Z,10.47
2023-03-04T06:35:13.483Z,8.07
2023-03-04T06:37:40.434Z,8.93
2023-03-04T06:40:08.146Z,9.33
2023-03-04T06:42:35.703Z,8.77
2023-03-04T06:45:03.011Z,7.23
2023-03-04T06:47:29.641Z,7.80
2023-03-04T06:49:56.322Z,10.97
2023-03-04T06:52:23.221Z,8.63
2023-03-04T06:54:49.821Z,9.53
2023-03-04T06:57:16.755Z,7.33
2023-03-04T06:59:43.422Z,8.27
2023-03-04T07:02:13.153Z,8.70
2023-03-04T07:04:40.448Z,10.93
2023-03-04T07:07:07.070Z,5.67
2023-03-04T07:09:33.734Z,10.87
2023-03-04T07:12:00.459Z,6.97
2023-03-04T07:14:27.946Z,7.70
2023-03-04T07:16:54.713Z,7.50
2023-03-04T07:19:21.467Z,8.10
2023-03-04T07:21:48.069Z,8.30
2023-03-04T07:24:14.842Z,8.20
2023-03-04T07:26:41.486Z,6.03
2023-03-04T07:29:08.045Z,5.60
2023-03-04T07:31:36.814Z,5.17
2023-03-04T07:34:06.681Z,7.23
2023-03-04T07:36:35.867Z,6.60
2023-03-04T07:39:03.125Z,6.57
2023-03-04T07:41:30.065Z,8.90
2023-03-04T07:43:58.012Z,10.37
2023-03-04T07:46:25.006Z,6.30
2023-03-04T07:48:51.619Z,6.63
2023-03-04T07:51:20.865Z,8.17
2023-03-04T07:53:49.836Z,8.33
2023-03-04T07:56:20.002Z,5.50
2023-03-04T07:58:46.702Z,4.33
2023-03-04T08:01:34.730Z,6.37
2023-03-04T08:04:02.035Z,3.20
2023-03-04T08:06:28.922Z,5.47
2023-03-04T08:09:01.319Z,6.00
2023-03-04T08:11:29.680Z,9.00
2023-03-04T08:13:56.818Z,6.30
2023-03-04T08:16:24.423Z,5.80
2023-03-04T08:18:54.291Z,5.63
2023-03-04T08:21:22.588Z,5.17
2023-03-04T08:23:50.509Z,6.03
2023-03-04T08:26:24.265Z,5.97
2023-03-04T08:28:51.299Z,5.17
2023-03-04T08:31:18.890Z,8.20
2023-03-04T08:33:46.657Z,5.20
2023-03-04T08:36:14.541Z,8.57
2023-03-04T08:38:41.223Z,6.80
2023-03-04T08:41:07.848Z,6.00
2023-03-04T08:43:35.088Z,8.93
2023-03-04T08:46:02.440Z,6.13
2023-03-04T08:48:29.084Z,7.87
2023-03-04T08:50:55.648Z,7.13
2023-03-04T08:53:22.416Z,6.47
2023-03-04T08:55:50.800Z,7.63
2023-03-04T08:58:17.949Z,5.53
2023-03-04T09:00:48.384Z,13.07
2023-03-04T09:03:16.436Z,9.83
2023-03-04T09:05:45.382Z,7.80
2023-03-04T09:08:12.285Z,8.30
2023-03-04T09:10:38.942Z,7.27
2023-03-04T09:13:06.306Z,6.00
2023-03-04T09:15:36.015Z,10.10
2023-03-04T09:18:03.978Z,9.67
2023-03-04T09:20:31.678Z,9.10
2023-03-04T09:22:58.485Z,6.70
2023-03-04T09:25:25.098Z,8.80
2023-03-04T09:27:51.665Z,5.43
2023-03-04T09:30:18.799Z,8.33
2023-03-04T09:32:45.368Z,8.43
2023-03-04T09:35:11.937Z,5.10
2023-03-04T09:37:41.196Z,5.97
2023-03-04T09:40:09.833Z,6.67
2023-03-04T09:42:37.961Z,8.77
2023-03-04T09:45:07.324Z,8.07
2023-03-04T09:47:37.870Z,8.60
2023-03-04T09:50:08.757Z,5.57
2023-03-04T09:52:35.351Z,8.03
2023-03-04T09:55:25.463Z,10.27
2023-03-04T09:58:21.731Z,6.80
2023-03-04T10:01:15.898Z,7.60
2023-03-04T10:03:55.290Z,7.93
2023-03-04T10:06:23.344Z,9.70
2023-03-04T10:08:59.283Z,7.10
2023-03-04T10:11:37.123Z,8.30
2023-03-04T10:14:29.346Z,9.77
2023-03-04T10:17:20.108Z,10.30
2023-03-04T10:20:04.379Z,16.80
2023-03-04T10:22:48.659Z,8.60
2023-03-04T10:25:17.448Z,8.80
2023-03-04T10:27:50.883Z,11.20
2023-03-04T10:30:48.446Z,7.67
2023-03-04T10:33:18.300Z,12.53
2023-03-04T10:36:12.706Z,10.87
2023-03-04T10:38:41.723Z,9.53
2023-03-04T10:41:22.433Z,8.90
2023-03-04T10:44:01.287Z,10.93
2023-03-04T10:46:27.970Z,8.73
2023-03-04T10:48:54.902Z,9.87
2023-03-04T10:51:29.557Z,10.30
2023-03-04T10:54:08.708Z,9.53
2023-03-04T10:56:45.402Z,9.80
2023-03-04T10:59:40.810Z,9.97
2023-03-04T11:02:29.949Z,7.10
2023-03-04T11:05:17.615Z,13.40
2023-03-04T11:07:55.548Z,11.33
2023-03-04T11:10:36.130Z,12.87
2023-03-04T11:13:11.858Z,10.10
2023-03-04T11:15:51.957Z,9.73
2023-03-04T11:18:24.125Z,15.43
2023-03-04T11:20:51.618Z,8.33
2023-03-04T11:23:34.337Z,13.93
2023-03-04T11:26:07.966Z,13.17
2023-03-04T11:28:42.843Z,13.17
2023-03-04T11:31:15.417Z,10.57
2023-03-04T11:33:50.956Z,10.37
2023-03-04T11:36:34.251Z,12.20
2023-03-04T11:39:03.842Z,9.93
2023-03-04T11:41:39.272Z,14.50
2023-03-04T11:44:06.846Z,14.57
2023-03-04T11:46:56.338Z,12.13
2023-03-04T11:49:40.274Z,13.10
2023-03-04T11:52:31.457Z,13.70
2023-03-04T11:55:18.103Z,10.03
2023-03-04T11:58:06.220Z,13.50
2023-03-04T12:00:55.803Z,16.53
2023-03-04T12:03:53.287Z,11.10
2023-03-04T12:06:44.823Z,13.87
2023-03-04T12:09:39.845Z,11.47
2023-03-04T12:12:46.267Z,16.93
2023-03-04T12:15:23.507Z,12.17
2023-03-04T12:18:21.313Z,11.37
2023-03-04T12:21:04.614Z,12.53
2023-03-04T12:23:52.177Z,14.40
2023-03-04T12:26:38.309Z,11.87
2023-03-04T12:29:21.678Z,14.70
2023-03-04T12:32:16.411Z,12.23
2023-03-04T12:35:04.125Z,13.37
2023-03-04T12:38:12.369Z,10.73
2023-03-04T12:41:06.674Z,10.17
2023-03-04T12:43:37.310Z,13.50
2023-03-04T12:46:19.508Z,11.50
2023-03-04T12:49:13.665Z,9.97
2023-03-04T12:52:02.700Z,12.90
2023-03-04T12:54:38.967Z,9.30
2023-03-04T12:57:24.666Z,11.33
2023-03-04T13:00:08.962Z,9.17
2023-03-04T13:03:03.816Z,7.50
2023-03-04T13:05:57.133Z,7.50
2023-03-04T13:09:11.588Z,10.80
2023-03-04T13:11:49.816Z,9.00
2023-03-04T13:14:18.158Z,11.67
2023-03-04T13:16:50.387Z,10.07
2023-03-04T13:19:42.813Z,12.97
2023-03-04T13:22:29.597Z,8.40
2023-03-04T13:24:57.673Z,8.40
2023-03-04T13:27:50.483Z,7.90
2023-03-04T13:30:32.421Z,9.80
2023-03-04T13:33:08.638Z,7.97
2023-03-04T13:35:50.294Z,10.57
2023-03-04T13:38:32.277Z,8.60
2023-03-04T13:41:05.040Z,11.57
2023-03-04T13:43:42.573Z,9.73
2023-03-04T13:46:18.433Z,13.43
2023-03-04T13:48:51.391Z,9.43
2023-03-04T13:51:33.523Z,12.20
2023-03-04T13:54:00.095Z,8.43
2023-03-04T13:56:40.652Z,10.00
2023-03-04T13:59:07.188Z,11.00
2023-03-04T14:01:48.625Z,11.37
2023-03-04T14:04:30.583Z,13.43
2023-03-04T14:06:59.380Z,10.10
2023-03-04T14:09:28.712Z,12.93
2023-03-04T14:11:58.509Z,10.67
2023-03-04T14:14:32.312Z,9.60
2023-03-04T14:17:01.962Z,13.80
2023-03-04T14:19:29.818Z,13.10
2023-03-04T14:21:59.001Z,13.07
2023-03-04T14:24:25.659Z,9.60
2023-03-04T14:27:11.441Z,17.47
2023-03-04T14:29:38.079Z,14.60
2023-03-04T14:32:06.217Z,12.40
2023-03-04T14:34:38.637Z,9.90
2023-03-04T14:37:21.570Z,12.43
2023-03-04T14:39:52.605Z,11.53
2023-03-04T14:42:22.133Z,11.87
2023-03-04T14:44:50.822Z,11.53
2023-03-04T14:47:26.534Z,13.20
2023-03-04T14:49:53.481Z,15.30
2023-03-04T14:52:38.363Z,10.47
2023-03-04T14:55:25.794Z,11.67
2023-03-04T14:58:00.863Z,13.67
2023-03-04T15:00:31.196Z,14.77
2023-03-04T15:03:03.762Z,13.33
2023-03-04T15:05:33.437Z,13.17
2023-03-04T15:08:05.515Z,12.40
2023-03-04T15:10:35.308Z,17.03
2023-03-04T15:13:07.735Z,13.13
2023-03-04T15:15:37.364Z,12.20
2023-03-04T15:18:16.065Z,10.23
2023-03-04T15:20:42.649Z,10.10
2023-03-04T15:23:14.553Z,13.53
2023-03-04T15:25:41.135Z,8.33
2023-03-04T15:28:16.646Z,16.10
2023-03-04T15:30:43.444Z,9.90
2023-03-04T15:33:13.648Z,12.20
2023-03-04T15:35:41.759Z,10.50
2023-03-04T15:38:12.374Z,13.93
2023-03-04T15:40:44.106Z,7.93
2023-03-04T15:43:15.451Z,10.53
2023-03-04T15:45:42.822Z,14.27
2023-03-04T15:48:12.466Z,13.00
2023-03-04T15:50:44.035Z,11.90
2023-03-04T15:53:39.643Z,14.13
2023-03-04T15:56:11.431Z,13.57
2023-03-04T15:58:39.306Z,13.23
2023-03-04T16:01:06.134Z,15.97
2023-03-04T16:03:32.888Z,15.60
2023-03-04T16:05:59.529Z,15.03
2023-03-04T16:08:26.236Z,9.47
2023-03-04T16:10:53.668Z,10.83
2023-03-04T16:13:23.122Z,12.47
2023-03-04T16:15:49.935Z,13.87
2023-03-04T16:18:17.101Z,10.37
2023-03-04T16:20:47.220Z,13.93
2023-03-04T16:23:17.408Z,17.83
2023-03-04T16:25:45.593Z,14.73
2023-03-04T16:28:12.685Z,10.70
2023-03-04T16:30:39.670Z,9.37
2023-03-04T16:33:06.673Z,10.10
2023-03-04T16:35:35.877Z,12.20
2023-03-04T16:38:02.602Z,12.23
2023-03-04T16:40:30.759Z,11.73
2023-03-04T16:42:57.368Z,15.17
2023-03-04T16:45:26.456Z,14.03
2023-03-04T16:47:54.508Z,10.37
2023-03-04T16:50:27.394Z,13.03
2023-03-04T16:52:55.400Z,11.67
2023-03-04T16:55:29.115Z,12.50
2023-03-04T16:57:57.862Z,13.57
2023-03-04T17:00:28.386Z,8.87
2023-03-04T17:03:00.301Z,8.57
2023-03-04T17:05:31.349Z,12.63
2023-03-04T17:07:58.225Z,8.43
2023-03-04T17:10:25.494Z,11.33
2023-03-04T17:12:52.571Z,7.87
2023-03-04T17:15:19.518Z,13.17
2023-03-04T17:17:46.174Z,9.17
2023-03-04T17:20:16.526Z,10.60
2023-03-04T17:22:43.752Z,11.10
2023-03-04T17:25:11.160Z,12.03
2023-03-04T17:27:37.966Z,11.43
2023-03-04T17:30:06.783Z,9.90
2023-03-04T17:32:33.692Z,10.40
2023-03-04T17:35:00.509Z,10.30
2023-03-04T17:37:27.477Z,9.03
2023-03-04T17:39:54.060Z,9.70
2023-03-04T17:42:21.101Z,8.97
2023-03-04T17:44:48.016Z,11.87
2023-03-04T17:47:15.858Z,13.80
2023-03-04T17:49:42.513Z,12.50
2023-03-04T17:52:09.188Z,10.93
2023-03-04T17:54:36.596Z,12.27
2023-03-04T17:57:10.701Z,7.97
2023-03-04T17:59:37.269Z,13.30
2023-03-04T18:02:05.759Z,15.83
2023-03-04T18:04:33.861Z,12.20
2023-03-04T18:07:00.422Z,13.23
2023-03-04T18:09:27.053Z,8.57
2023-03-04T18:11:53.659Z,11.33
2023-03-04T18:14:20.274Z,12.43
2023-03-04T18:16:46.939Z,10.10
2023-03-04T18:19:13.630Z,13.87
2023-03-04T18:21:40.209Z,13.07
2023-03-04T18:24:07.144Z,13.67
2023-03-04T18:26:33.956Z,9.77
2023-03-04T18:29:00.548Z,11.67
2023-03-04T18:31:31.570Z,10.63
2023-03-04T18:34:01.540Z,10.33
2023-03-04T18:36:28.541Z,11.87
2023-03-04T18:38:57.147Z,10.47
2023-03-04T18:41:25.764Z,12.80
2023-03-04T18:43:53.745Z,9.97
2023-03-04T18:46:32.922Z,12.60
2023-03-04T18:49:03.018Z,12.20
2023-03-04T18:51:29.951Z,14.17
2023-03-04T18:53:56.613Z,13.27
2023-03-04T18:56:31.340Z,15.07
2023-03-04T18:58:59.377Z,14.60
2023-03-04T19:01:26.454Z,9.97
2023-03-04T19:03:54.328Z,11.17
2023-03-04T19:06:21.039Z,12.40
2023-03-04T19:08:50.668Z,14.47
2023-03-04T19:11:17.318Z,11.27
2023-03-04T19:13:43.886Z,14.27
2023-03-04T19:16:10.522Z,14.57
2023-03-04T19:18:37.331Z,11.83
2023-03-04T19:21:05.475Z,12.90
2023-03-04T19:23:32.461Z,10.97
2023-03-04T19:25:59.065Z,12.70
2023-03-04T19:28:25.726Z,15.47
2023-03-04T19:30:53.819Z,13.83
2023-03-04T19:33:20.504Z,14.77
2023-03-04T19:35:47.861Z,11.43
2023-03-04T19:38:14.554Z,12.80
2023-03-04T19:40:42.184Z,12.57
2023-03-04T19:43:08.797Z,15.17
2023-03-04T19:45:35.395Z,9.47
2023-03-04T19:48:03.032Z,9.30
2023-03-04T19:50:30.097Z,8.33
2023-03-04T19:52:56.841Z,10.00
2023-03-04T19:55:23.784Z,6.60
2023-03-04T19:57:50.449Z,6.53
2023-03-04T20:00:17.456Z,9.17
2023-03-04T20:02:45.544Z,8.03
2023-03-04T20:05:13.410Z,6.67
2023-03-04T20:07:40.348Z,6.37
2023-03-04T20:10:07.641Z,8.13
2023-03-04T20:12:36.148Z,7.00
2023-03-04T20:15:04.827Z,10.00
2023-03-04T20:17:31.355Z,7.90
2023-03-04T20:19:57.992Z,9.37
2023-03-04T20:22:24.520Z,7.77
2023-03-04T20:24:51.231Z,9.67
2023-03-04T20:27:17.999Z,8.73
2023-03-04T20:29:45.210Z,6.33
2023-03-04T20:32:12.015Z,4.03
2023-03-04T20:34:38.701Z,6.10
2023-03-04T20:37:05.288Z,5.43
2023-03-04T20:39:31.905Z,4.17
2023-03-04T20:41:58.855Z,6.40
2023-03-04T20:44:25.740Z,3.60
2023-03-04T20:46:52.379Z,4.80
2023-03-04T20:49:28.009Z,2.97
2023-03-04T20:52:00.542Z,5.20
2023-03-04T20:54:27.114Z,5.43
2023-03-04T20:57:08.381Z,4.57
2023-03-04T20:59:37.803Z,8.53
2023-03-04T21:02:06.525Z,4.57
2023-03-04T21:04:34.403Z,5.77
2023-03-04T21:07:04.119Z,5.00
2023-03-04T21:09:30.690Z,5.73
2023-03-04T21:11:59.097Z,4.27
2023-03-04T21:14:31.808Z,6.10
2023-03-04T21:17:01.700Z,4.93
2023-03-04T21:19:34.076Z,4.77
2023-03-04T21:22:01.363Z,5.20
2023-03-04T21:24:31.338Z,5.37
2023-03-04T21:26:58.277Z,5.63
2023-03-04T21:29:27.991Z,4.03
2023-03-04T21:32:20.911Z,3.97
2023-03-04T21:34:51.911Z,3.83
2023-03-04T21:37:19.986Z,6.20
2023-03-04T21:39:46.823Z,2.73
2023-03-04T21:42:14.307Z,5.70
2023-03-04T21:44:49.212Z,5.80
2023-03-04T21:47:17.013Z,6.70
2023-03-04T21:49:43.669Z,6.37
2023-03-04T21:52:10.240Z,5.70
2023-03-04T21:54:37.060Z,5.20
2023-03-04T21:57:03.873Z,5.33
2023-03-04T21:59:30.451Z,5.40
2023-03-04T22:01:57.083Z,5.20
2023-03-04T22:04:23.719Z,4.73
2023-03-04T22:06:50.296Z,4.33
2023-03-04T22:09:16.835Z,4.97
2023-03-04T22:11:43.471Z,5.57
2023-03-04T22:14:11.075Z,7.07
2023-03-04T22:16:48.939Z,7.33
2023-03-04T22:19:19.535Z,9.50
2023-03-04T22:21:46.302Z,9.33
2023-03-04T22:24:12.859Z,8.57
2023-03-04T22:26:39.415Z,10.53
2023-03-04T22:29:06.053Z,10.03
2023-03-04T22:31:35.164Z,12.03
2023-03-04T22:34:04.456Z,14.40
2023-03-04T22:36:34.016Z,8.87
2023-03-04T22:39:02.401Z,9.97
2023-03-04T22:41:29.060Z,8.33
2023-03-04T22:43:56.601Z,9.37
2023-03-04T22:46:29.092Z,8.00
2023-03-04T22:49:01.468Z,9.10
2023-03-04T22:51:28.878Z,11.00
2023-03-04T22:53:56.055Z,11.03
2023-03-04T22:56:23.239Z,7.97
2023-03-04T22:58:50.196Z,6.73
2023-03-04T23:01:18.318Z,10.30
2023-03-04T23:03:47.501Z,11.73
2023-03-04T23:06:17.654Z,10.17
2023-03-04T23:08:46.282Z,11.00
2023-03-04T23:11:26.512Z,11.07
2023-03-04T23:13:54.433Z,10.20
2023-03-04T23:16:22.144Z,7.93
2023-03-04T23:18:49.330Z,11.10
2023-03-04T23:21:18.963Z,9.83
2023-03-04T23:23:46.244Z,9.10
2023-03-04T23:26:21.997Z,9.30
2023-03-04T23:28:49.329Z,8.13
2023-03-04T23:31:16.604Z,10.00
2023-03-04T23:33:44.854Z,8.93
2023-03-04T23:36:15.251Z,8.63
2023-03-04T23:38:44.149Z,14.40
2023-03-04T23:41:13.083Z,10.63
2023-03-04T23:43:39.729Z,8.93
2023-03-04T23:46:09.091Z,16.90
2023-03-04T23:48:35.686Z,15.30
2023-03-04T23:51:02.259Z,11.13
2023-03-04T23:53:29.372Z,11.70
2023-03-04T23:55:55.958Z,12.97
2023-03-04T23:58:22.572Z,13.80
